createdAt,value
2022-10-01T00:00:58.250Z,8.02
2022-10-01T00:06:15.529Z,6.75
2022-10-01T00:11:32.591Z,5.90
2022-10-01T00:16:34.382Z,5.35
2022-10-01T00:21:42.944Z,6.75
2022-10-01T00:26:44.315Z,7.93
2022-10-01T00:31:45.723Z,8.10
2022-10-01T00:36:47.211Z,7.88
2022-10-01T00:41:48.618Z,7.30
2022-10-01T00:46:51.545Z,9.10
2022-10-01T00:51:57.221Z,7.70
2022-10-01T00:57:00.631Z,9.07
2022-10-01T01:02:02.071Z,6.90
2022-10-01T01:07:04.705Z,7.82
2022-10-01T01:12:31.301Z,8.23
2022-10-01T01:17:48.515Z,10.68
2022-10-01T01:23:19.659Z,9.60
2022-10-01T01:28:39.544Z,8.63
2022-10-01T01:33:45.075Z,8.23
2022-10-01T01:38:51.797Z,10.32
2022-10-01T01:43:56.829Z,7.28
2022-10-01T01:49:00.964Z,7.85
2022-10-01T01:54:02.788Z,7.75
2022-10-01T01:59:04.622Z,7.28
2022-10-01T02:04:19.863Z,7.03
2022-10-01T02:09:37.109Z,9.43
2022-10-01T02:15:07.689Z,9.02
2022-10-01T02:20:20.741Z,9.57
2022-10-01T02:25:28.998Z,7.70
2022-10-01T02:30:33.154Z,9.02
2022-10-01T02:35:36.888Z,7.47
2022-10-01T02:40:42.371Z,7.78
2022-10-01T02:45:47.413Z,8.27
2022-10-01T02:50:53.849Z,8.10
2022-10-01T02:55:56.686Z,8.88
2022-10-01T03:00:58.112Z,7.07
2022-10-01T03:05:59.456Z,7.47
2022-10-01T03:11:00.812Z,8.10
2022-10-01T03:16:02.274Z,7.18
2022-10-01T03:21:03.801Z,7.03
2022-10-01T03:26:05.223Z,7.18
2022-10-01T03:31:08.863Z,6.78
2022-10-01T03:36:10.414Z,6.50
2022-10-01T03:41:11.804Z,7.95
2022-10-01T03:46:13.730Z,9.35
2022-10-01T03:51:19.666Z,6.05
2022-10-01T03:56:21.395Z,6.55
2022-10-01T04:01:23.047Z,7.03
2022-10-01T04:06:25.002Z,7.70
2022-10-01T04:11:26.343Z,5.63
2022-10-01T04:16:28.248Z,5.93
2022-10-01T04:21:29.660Z,5.18
2022-10-01T04:26:31.045Z,3.85
2022-10-01T04:31:32.880Z,3.55
2022-10-01T04:36:34.415Z,3.75
2022-10-01T04:41:36.015Z,2.67
2022-10-01T04:46:37.555Z,2.13
2022-10-01T04:51:38.897Z,1.70
2022-10-01T04:56:40.252Z,2.17
2022-10-01T05:01:41.659Z,1.25
2022-10-01T05:06:43.179Z,1.38
2022-10-01T05:11:44.520Z,0.45
2022-10-01T05:16:46.169Z,1.70
2022-10-01T05:21:47.644Z,1.48
2022-10-01T05:26:48.997Z,0.50
2022-10-01T05:31:50.415Z,1.60
2022-10-01T05:36:51.891Z,2.08
2022-10-01T05:41:53.229Z,0.85
2022-10-01T05:46:54.743Z,1.40
2022-10-01T05:51:56.077Z,2.63
2022-10-01T05:56:57.506Z,0.88
2022-10-01T06:01:59.001Z,2.10
2022-10-01T06:07:00.468Z,1.92
2022-10-01T06:12:01.899Z,0.35
2022-10-01T06:17:03.252Z,1.95
2022-10-01T06:22:04.630Z,1.50
2022-10-01T06:27:06.072Z,0.45
2022-10-01T06:32:07.860Z,0.80
2022-10-01T06:37:09.279Z,0.63
2022-10-01T06:42:12.163Z,1.40
2022-10-01T06:47:13.685Z,2.85
2022-10-01T06:52:16.535Z,2.10
2022-10-01T06:57:17.968Z,2.47
2022-10-01T07:02:25.523Z,2.05
2022-10-01T07:07:44.812Z,1.73
2022-10-01T07:12:46.919Z,1.08
2022-10-01T07:17:50.302Z,1.75
2022-10-01T07:22:57.540Z,1.85
2022-10-01T07:28:01.758Z,1.17
2022-10-01T07:33:03.279Z,2.08
2022-10-01T07:38:05.154Z,1.20
2022-10-01T07:43:07.016Z,0.45
2022-10-01T07:48:08.396Z,0.57
2022-10-01T07:53:12.874Z,2.10
2022-10-01T07:58:14.336Z,1.65
2022-10-01T08:03:22.170Z,1.38
2022-10-01T08:08:23.575Z,2.58
2022-10-01T08:13:25.131Z,0.88
2022-10-01T08:18:26.562Z,1.77
2022-10-01T08:23:29.542Z,1.10
2022-10-01T08:28:31.064Z,1.05
2022-10-01T08:33:32.523Z,1.90
2022-10-01T08:38:34.649Z,2.20
2022-10-01T08:43:41.229Z,3.25
2022-10-01T08:49:03.497Z,6.35
2022-10-01T08:54:23.258Z,4.38
2022-10-01T08:59:42.771Z,4.03
2022-10-01T09:09:54.059Z,4.75
2022-10-01T09:14:55.407Z,1.88
2022-10-01T09:20:18.902Z,4.80
2022-10-01T09:25:30.816Z,4.55
2022-10-01T09:36:50.126Z,4.32
2022-10-01T09:42:01.809Z,4.97
2022-10-01T09:47:42.912Z,5.55
2022-10-01T09:52:52.847Z,2.80
2022-10-01T09:58:27.751Z,5.72
2022-10-01T10:08:58.345Z,6.95
2022-10-01T10:14:02.221Z,5.30
2022-10-01T10:19:07.277Z,7.13
2022-10-01T10:24:23.971Z,8.82
2022-10-01T10:29:34.311Z,5.38
2022-10-01T10:34:44.273Z,8.23
2022-10-01T10:39:50.885Z,5.68
2022-10-01T10:44:55.781Z,6.85
2022-10-01T10:50:01.119Z,7.18
2022-10-01T10:55:21.545Z,5.25
2022-10-01T11:00:24.933Z,4.68
2022-10-01T11:05:29.513Z,6.38
2022-10-01T11:10:35.589Z,5.15
2022-10-01T11:16:01.273Z,7.18
2022-10-01T11:21:08.154Z,6.82
2022-10-01T11:26:26.060Z,7.00
2022-10-01T11:31:58.850Z,6.30
2022-10-01T11:37:18.596Z,11.32
2022-10-01T11:42:52.310Z,8.55
2022-10-01T11:48:06.691Z,7.18
2022-10-01T11:53:33.726Z,7.65
2022-10-01T12:04:39.420Z,6.22
2022-10-01T12:10:18.195Z,7.47
2022-10-01T12:15:45.756Z,3.85
2022-10-01T12:20:57.563Z,7.00
2022-10-01T12:26:17.830Z,8.93
2022-10-01T12:31:33.187Z,7.25
2022-10-01T12:36:57.917Z,10.05
2022-10-01T12:42:17.803Z,6.30
2022-10-01T12:47:46.614Z,9.10
2022-10-01T12:53:12.411Z,5.15
2022-10-01T12:58:52.668Z,7.60
2022-10-01T13:04:12.775Z,4.63
2022-10-01T13:09:19.999Z,7.10
2022-10-01T13:14:22.996Z,4.93
2022-10-01T13:19:47.253Z,6.28
2022-10-01T13:25:08.757Z,5.90
2022-10-01T13:30:19.617Z,8.43
2022-10-01T13:35:49.163Z,5.70
2022-10-01T13:46:11.146Z,10.25
2022-10-01T13:51:15.083Z,7.30
2022-10-01T13:56:34.827Z,7.88
2022-10-01T14:01:42.095Z,7.00
2022-10-01T14:06:47.249Z,8.90
2022-10-01T14:11:53.531Z,8.82
2022-10-01T14:16:55.499Z,8.63
2022-10-01T14:22:27.866Z,7.53
2022-10-01T14:27:45.059Z,12.43
2022-10-01T14:33:05.037Z,11.18
2022-10-01T14:38:18.108Z,7.28
2022-10-01T14:43:22.430Z,5.35
2022-10-01T14:48:26.191Z,12.75
2022-10-01T14:53:31.910Z,12.25
2022-10-01T14:58:37.579Z,12.82
2022-10-01T15:03:40.118Z,10.10
2022-10-01T15:08:44.138Z,9.25
2022-10-01T15:13:47.951Z,6.07
2022-10-01T15:18:56.156Z,7.15
2022-10-01T15:23:57.822Z,11.57
2022-10-01T15:29:06.745Z,15.13
2022-10-01T15:34:12.619Z,9.93
2022-10-01T15:39:33.243Z,7.07
2022-10-01T15:44:38.574Z,5.13
2022-10-01T15:49:40.162Z,12.15
2022-10-01T15:54:43.672Z,7.32
2022-10-01T15:59:46.240Z,9.82
2022-10-01T16:04:47.978Z,8.95
2022-10-01T16:09:57.195Z,9.05
2022-10-01T16:15:02.571Z,9.07
2022-10-01T16:20:16.032Z,7.63
2022-10-01T16:25:23.376Z,5.63
2022-10-01T16:30:28.486Z,12.38
2022-10-01T16:35:32.559Z,8.52
2022-10-01T16:40:39.136Z,10.75
2022-10-01T16:45:41.834Z,9.63
2022-10-01T16:50:44.209Z,8.38
2022-10-01T16:55:47.903Z,7.80
2022-10-01T17:00:49.425Z,10.38
2022-10-01T17:05:50.842Z,12.50
2022-10-01T17:10:55.373Z,11.43
2022-10-01T17:15:57.189Z,8.63
2022-10-01T17:20:58.629Z,14.60
2022-10-01T17:26:00.025Z,7.78
2022-10-01T17:31:01.476Z,14.55
2022-10-01T17:36:06.828Z,10.32
2022-10-01T17:41:08.218Z,10.55
2022-10-01T17:46:09.618Z,7.50
2022-10-01T17:51:11.418Z,14.82
2022-10-01T17:56:15.800Z,9.38
2022-10-01T18:01:19.975Z,10.10
2022-10-01T18:06:23.181Z,9.52
2022-10-01T18:11:26.809Z,9.52
2022-10-01T18:16:28.359Z,9.57
2022-10-01T18:21:29.890Z,10.10
2022-10-01T18:26:31.966Z,8.32
2022-10-01T18:31:37.069Z,10.93
2022-10-01T18:36:58.911Z,7.65
2022-10-01T18:42:22.438Z,11.30
2022-10-01T18:47:33.391Z,10.85
2022-10-01T18:52:43.866Z,16.08
2022-10-01T18:58:07.232Z,11.30
2022-10-01T19:03:41.182Z,9.30
2022-10-01T19:08:48.955Z,9.88
2022-10-01T19:14:18.443Z,12.32
2022-10-01T19:19:57.465Z,12.10
2022-10-01T19:25:27.011Z,8.15
2022-10-01T19:30:42.673Z,9.93
2022-10-01T19:35:50.243Z,11.32
2022-10-01T19:41:15.687Z,13.10
2022-10-01T19:46:31.904Z,10.93
2022-10-01T19:51:40.653Z,7.70
2022-10-01T19:56:48.498Z,9.23
2022-10-01T20:01:58.297Z,10.05
2022-10-01T20:07:10.881Z,8.95
2022-10-01T20:12:26.113Z,14.33
2022-10-01T20:17:56.369Z,9.50
2022-10-01T20:23:06.039Z,10.77
2022-10-01T20:28:39.780Z,12.77
2022-10-01T20:33:52.501Z,10.20
2022-10-01T20:39:02.391Z,11.95
2022-10-01T20:44:06.613Z,11.55
2022-10-01T20:49:20.618Z,10.90
2022-10-01T20:54:30.772Z,14.43
2022-10-01T21:04:52.943Z,13.85
2022-10-01T21:09:57.883Z,19.67
2022-10-01T21:15:01.849Z,12.27
2022-10-01T21:20:32.257Z,13.40
2022-10-01T21:25:43.298Z,14.65
2022-10-01T21:31:06.168Z,12.30
2022-10-01T21:36:23.941Z,12.63
2022-10-01T21:41:36.306Z,14.50
2022-10-01T21:47:07.729Z,12.77
2022-10-01T21:52:15.200Z,12.45
2022-10-01T21:57:35.425Z,14.27
2022-10-01T22:07:52.316Z,10.57
2022-10-01T22:12:56.503Z,13.35
2022-10-01T22:18:02.223Z,13.23
2022-10-01T22:23:09.055Z,15.23
2022-10-01T22:28:17.588Z,13.07
2022-10-01T22:33:26.260Z,12.68
2022-10-01T22:38:48.310Z,8.65
2022-10-01T22:43:49.766Z,7.75
2022-10-01T22:48:55.297Z,10.63
2022-10-01T22:54:34.167Z,9.55
2022-10-01T22:59:52.894Z,10.98
2022-10-01T23:05:29.416Z,11.70
2022-10-01T23:10:59.097Z,13.75
2022-10-01T23:16:06.445Z,14.50
2022-10-01T23:21:35.999Z,14.45
2022-10-01T23:26:46.328Z,12.80
2022-10-01T23:32:07.819Z,10.32
2022-10-01T23:37:34.994Z,14.88
2022-10-01T23:43:10.443Z,13.98
2022-10-01T23:48:23.296Z,18.55
2022-10-01T23:53:37.090Z,15.52
2022-10-01T23:58:45.856Z,15.75
